Time;durP1;ratioP1;P1;durP2;ratioP2;P2;SDS_P1;SDS_P2;PMS_P1;PMS_P2;Temp;Humidity;BMP_temperature;BMP_pressure;BME280_temperature;BME280_humidity;BME280_pressure;Samples;Min_cycle;Max_cycle;Signal;HPM_P1;HPM_P2
2022/07/17 00:01:32;;;;;;;7.08;3.80;;;;;;;16.79;93.63;100151.97;1719522;83;21105;-70
2022/07/17 00:03:58;;;;;;;7.87;3.67;;;;;;;16.79;93.19;100154.63;1719835;83;21041;-72
2022/07/17 00:06:25;;;;;;;6.80;3.55;;;;;;;16.80;94.45;100145.72;1719986;83;21483;-72
2022/07/17 00:08:51;;;;;;;7.33;3.67;;;;;;;16.81;93.42;100144.76;1719682;83;21021;-71
2022/07/17 00:11:18;;;;;;;5.95;3.87;;;;;;;16.82;93.71;100141.17;1719608;83;21057;-71
2022/07/17 00:13:45;;;;;;;5.22;3.47;;;;;;;16.83;95.62;100135.36;1719644;83;21085;-69
2022/07/17 00:16:11;;;;;;;7.60;3.90;;;;;;;16.82;97.67;100125.20;1719811;83;21013;-71
2022/07/17 00:18:39;;;;;;;7.00;3.75;;;;;;;16.84;98.41;100125.09;1719557;83;21128;-70
2022/07/17 00:21:05;;;;;;;5.72;3.60;;;;;;;16.80;97.71;100137.75;1719986;83;21009;-70
2022/07/17 00:23:32;;;;;;;6.87;3.83;;;;;;;16.77;96.81;100143.20;1719806;83;21057;-70
2022/07/17 00:25:59;;;;;;;6.95;3.87;;;;;;;16.71;98.51;100133.81;1719753;83;21062;-72
2022/07/17 00:28:25;;;;;;;5.25;3.40;;;;;;;16.65;100.00;100134.19;1719916;83;21076;-70
2022/07/17 00:30:52;;;;;;;8.60;3.45;;;;;;;16.62;100.00;100138.86;1719517;83;21143;-72
2022/07/17 00:33:19;;;;;;;9.28;3.80;;;;;;;16.57;100.00;100144.46;1719307;83;21033;-71
2022/07/17 00:35:45;;;;;;;7.78;3.90;;;;;;;16.45;100.00;100145.20;1719622;83;21117;-70
2022/07/17 00:38:13;;;;;;;6.97;3.55;;;;;;;16.30;100.00;100155.81;1719407;83;21089;-71
2022/07/17 00:40:40;;;;;;;5.70;3.72;;;;;;;16.26;100.00;100156.94;1719692;83;21084;-71
2022/07/17 00:43:06;;;;;;;6.75;4.00;;;;;;;16.22;100.00;100147.47;1719675;83;21235;-71
2022/07/17 00:45:33;;;;;;;5.95;3.60;;;;;;;16.19;100.00;100138.81;1720074;83;21059;-71
2022/07/17 00:48:05;;;;;;;10.40;3.50;;;;;;;16.15;100.00;100129.71;1719770;83;21510;-71
2022/07/17 00:50:39;;;;;;;6.00;3.37;;;;;;;16.14;100.00;100121.34;1719749;83;21128;-69
2022/07/17 00:53:06;;;;;;;14.10;3.75;;;;;;;16.18;100.00;100123.84;1722945;82;21039;-70
2022/07/17 00:55:33;;;;;;;10.30;4.50;;;;;;;16.17;100.00;100116.31;1749403;82;21203;-69
2022/07/17 00:58:02;;;;;;;4.78;3.55;;;;;;;16.18;100.00;100111.40;1749550;82;21049;-69
2022/07/17 01:00:29;;;;;;;7.87;4.00;;;;;;;16.29;100.00;100097.47;1749500;82;21061;-70
2022/07/17 01:02:56;;;;;;;8.40;3.77;;;;;;;16.24;100.00;100103.52;1749691;82;21107;-69
2022/07/17 01:05:22;;;;;;;7.60;3.58;;;;;;;16.21;100.00;100120.98;1749392;82;21648;-70
2022/07/17 01:07:50;;;;;;;7.97;3.85;;;;;;;16.19;100.00;100125.53;1749327;82;21759;-70
2022/07/17 01:10:18;;;;;;;8.58;3.15;;;;;;;16.13;100.00;100120.97;1749388;81;21006;-69
2022/07/17 01:12:46;;;;;;;6.65;3.95;;;;;;;16.12;100.00;100119.25;1749563;82;21059;-70
2022/07/17 01:15:14;;;;;;;6.25;3.90;;;;;;;16.06;100.00;100120.97;1749413;82;21041;-70
2022/07/17 01:17:42;;;;;;;4.50;3.22;;;;;;;16.05;100.00;100115.25;1749409;81;21495;-70
2022/07/17 01:20:11;;;;;;;30.92;5.12;;;;;;;16.01;100.00;100112.42;1749529;81;21158;-70
2022/07/17 01:22:47;;;;;;;4.42;3.22;;;;;;;15.98;100.00;100111.26;1749355;82;22098;-71
2022/07/17 01:28:06;;;;;;;10.38;4.50;;;;;;;15.92;100.00;100108.98;1851694;77;23448;-71
2022/07/17 01:30:33;;;;;;;6.08;3.75;;;;;;;15.91;100.00;100100.63;1787414;80;21084;-71
2022/07/17 01:32:59;;;;;;;6.50;3.45;;;;;;;15.95;100.00;100099.50;1754785;81;21166;-70
2022/07/17 01:35:27;;;;;;;6.35;3.92;;;;;;;15.97;100.00;100095.44;1787543;80;20981;-70
2022/07/17 01:37:54;;;;;;;6.08;3.33;;;;;;;15.96;100.00;100094.55;1754926;81;21009;-69
2022/07/17 01:40:21;;;;;;;5.78;4.22;;;;;;;16.00;100.00;100093.43;1787491;80;21533;-70
2022/07/17 01:42:49;;;;;;;5.53;3.47;;;;;;;16.03;100.00;100097.22;1754906;81;21517;-70
2022/07/17 01:45:17;;;;;;;5.95;3.60;;;;;;;16.04;100.00;100086.15;1787768;80;21205;-70
2022/07/17 01:47:44;;;;;;;8.90;3.87;;;;;;;16.02;100.00;100084.90;1754830;81;21585;-70
2022/07/17 01:50:12;;;;;;;6.83;3.30;;;;;;;16.01;100.00;100080.55;1787723;80;20974;-70
2022/07/17 01:52:41;;;;;;;5.58;4.00;;;;;;;16.02;100.00;100090.22;1754810;81;21108;-69
2022/07/17 01:55:10;;;;;;;7.78;3.90;;;;;;;16.04;100.00;100097.62;1787685;80;21013;-69
2022/07/17 01:57:36;;;;;;;4.28;3.42;;;;;;;15.99;100.00;100106.34;1787677;80;21054;-70
2022/07/17 02:00:09;;;;;;;4.90;3.75;;;;;;;15.88;100.00;100099.48;1787401;80;21006;-71
2022/07/17 02:02:35;;;;;;;5.47;3.70;;;;;;;15.84;100.00;100104.59;1787684;80;21036;-70
2022/07/17 02:05:03;;;;;;;6.42;3.75;;;;;;;15.79;100.00;100098.70;1786047;80;21124;-70
2022/07/17 02:07:32;;;;;;;5.75;3.80;;;;;;;15.76;100.00;100096.21;1785697;80;21092;-69
2022/07/17 02:09:59;;;;;;;5.55;3.77;;;;;;;15.75;100.00;100097.17;1785745;80;21917;-70
2022/07/17 02:12:25;;;;;;;7.47;4.08;;;;;;;15.72;100.00;100097.73;1785634;80;21545;-71
2022/07/17 02:14:53;;;;;;;5.25;3.70;;;;;;;15.76;100.00;100106.83;1785825;80;21049;-71
2022/07/17 02:17:20;;;;;;;6.78;3.72;;;;;;;15.77;100.00;100097.45;1785956;80;21092;-69
2022/07/17 02:19:47;;;;;;;9.88;4.50;;;;;;;15.80;100.00;100102.58;1785776;80;21147;-69
2022/07/17 02:22:13;;;;;;;8.55;4.05;;;;;;;15.83;100.00;100105.55;1785840;80;21258;-69
2022/07/17 02:24:40;;;;;;;5.60;3.65;;;;;;;15.84;100.00;100102.78;1785333;80;21053;-69
2022/07/17 02:27:07;;;;;;;6.70;3.83;;;;;;;15.81;100.00;100110.09;1779293;80;21037;-69
2022/07/17 02:29:34;;;;;;;7.75;3.75;;;;;;;15.78;100.00;100100.52;1705661;84;21026;-69
2022/07/17 02:32:01;;;;;;;6.15;3.58;;;;;;;15.80;100.00;100098.59;1772141;81;21053;-70
2022/07/17 02:34:31;;;;;;;8.00;4.00;;;;;;;15.80;100.00;100093.77;1705723;84;21174;-70
2022/07/17 02:36:58;;;;;;;6.55;3.83;;;;;;;15.83;100.00;100094.93;1772148;80;21623;-69
2022/07/17 02:39:24;;;;;;;6.45;3.98;;;;;;;15.84;100.00;100097.95;1771604;81;21606;-69
2022/07/17 02:41:51;;;;;;;7.17;3.67;;;;;;;15.85;100.00;100087.70;1771981;81;21609;-71
2022/07/17 02:44:18;;;;;;;7.33;3.65;;;;;;;15.87;100.00;100084.03;1771700;81;22047;-70
2022/07/17 02:46:44;;;;;;;9.45;3.50;;;;;;;15.91;100.00;100080.70;1705624;84;21593;-70
2022/07/17 02:49:12;;;;;;;6.80;3.58;;;;;;;15.93;100.00;100082.32;1771450;80;21565;-71
2022/07/17 02:51:39;;;;;;;7.15;3.92;;;;;;;15.97;100.00;100094.11;1705595;83;21058;-71
2022/07/17 02:54:05;;;;;;;3.92;3.02;;;;;;;15.98;100.00;100104.62;1740626;81;21106;-72
2022/07/17 02:56:33;;;;;;;7.22;3.72;;;;;;;15.94;100.00;100103.09;1711697;82;21044;-71
2022/07/17 02:58:59;;;;;;;6.08;3.37;;;;;;;15.97;100.00;100105.58;1711509;83;21954;-70
2022/07/17 03:01:25;;;;;;;5.05;3.00;;;;;;;15.97;100.00;100105.58;1711784;83;21559;-70
2022/07/17 03:03:53;;;;;;;10.25;4.10;;;;;;;15.97;100.00;100090.12;1711459;82;21559;-69
2022/07/17 03:06:20;;;;;;;4.55;3.25;;;;;;;15.99;100.00;100077.13;1711572;83;21031;-70
2022/07/17 03:08:50;;;;;;;6.60;3.45;;;;;;;15.98;100.00;100066.11;1711577;82;21084;-71
2022/07/17 03:11:17;;;;;;;5.35;2.75;;;;;;;15.99;100.00;100074.92;1711712;82;21276;-71
2022/07/17 03:13:45;;;;;;;7.62;3.00;;;;;;;16.07;100.00;100100.08;1711591;82;21117;-71
2022/07/17 03:16:11;;;;;;;11.63;3.65;;;;;;;16.05;100.00;100079.88;1711691;83;21142;-70
2022/07/17 03:18:39;;;;;;;6.10;3.35;;;;;;;16.06;100.00;100075.81;1711587;82;21525;-70
2022/07/17 03:21:06;;;;;;;6.55;3.17;;;;;;;16.08;100.00;100083.22;1711565;82;21072;-71
2022/07/17 03:23:32;;;;;;;6.42;3.90;;;;;;;16.09;100.00;100098.19;1711775;83;21469;-70
2022/07/17 03:25:59;;;;;;;5.30;3.42;;;;;;;16.09;100.00;100107.48;1711376;83;22140;-70
2022/07/17 03:28:25;;;;;;;5.03;3.60;;;;;;;16.08;100.00;100096.94;1711298;83;21627;-70
2022/07/17 03:30:52;;;;;;;7.35;3.37;;;;;;;16.07;100.00;100085.47;1711443;83;21048;-70
2022/07/17 03:33:18;;;;;;;5.10;3.37;;;;;;;16.06;100.00;100083.77;1711692;82;21080;-71
2022/07/17 03:35:45;;;;;;;5.28;3.45;;;;;;;16.08;100.00;100101.81;1711301;83;21310;-70
2022/07/17 03:38:11;;;;;;;5.22;3.17;;;;;;;16.12;100.00;100123.23;1711675;83;21139;-70
2022/07/17 03:40:38;;;;;;;6.15;3.45;;;;;;;16.06;100.00;100118.31;1711503;83;21411;-70
2022/07/17 03:43:04;;;;;;;5.60;3.25;;;;;;;16.05;100.00;100118.39;1711755;83;21088;-69
2022/07/17 03:45:31;;;;;;;3.62;2.92;;;;;;;16.06;100.00;100107.69;1711851;83;21049;-68
2022/07/17 03:47:58;;;;;;;4.60;2.98;;;;;;;16.09;100.00;100103.98;1711705;83;21260;-70
2022/07/17 03:50:25;;;;;;;7.92;3.10;;;;;;;16.09;100.00;100104.83;1711603;83;21008;-71
2022/07/17 03:52:52;;;;;;;8.28;3.55;;;;;;;16.11;100.00;100097.63;1711698;82;21065;-70
2022/07/17 03:55:19;;;;;;;5.10;2.85;;;;;;;16.15;100.00;100083.22;1712075;83;21123;-70
2022/07/17 03:57:45;;;;;;;7.00;3.12;;;;;;;16.21;100.00;100097.06;1711533;83;21036;-70
2022/07/17 04:00:12;;;;;;;5.40;3.02;;;;;;;16.23;100.00;100107.13;1711571;83;21801;-70
2022/07/17 04:02:38;;;;;;;4.45;2.95;;;;;;;16.28;100.00;100101.06;1711544;83;21052;-70
2022/07/17 04:05:09;;;;;;;3.95;2.87;;;;;;;16.33;100.00;100092.32;1711503;83;21067;-71
2022/07/17 04:07:39;;;;;;;7.42;2.87;;;;;;;16.40;100.00;100094.98;1711912;83;21079;-70
2022/07/17 04:10:08;;;;;;;7.58;3.12;;;;;;;16.41;100.00;100090.06;1711484;83;21596;-70
2022/07/17 04:12:35;;;;;;;4.87;3.33;;;;;;;16.48;100.00;100093.19;1711642;83;21773;-70
2022/07/17 04:15:03;;;;;;;11.10;3.70;;;;;;;16.53;100.00;100095.93;1711514;83;21063;-69
2022/07/17 04:17:30;;;;;;;8.75;3.47;;;;;;;16.61;100.00;100095.92;1711776;83;21087;-69
2022/07/17 04:19:57;;;;;;;7.83;3.02;;;;;;;16.68;100.00;100098.58;1711461;82;21123;-70
2022/07/17 04:22:23;;;;;;;6.15;2.80;;;;;;;16.74;100.00;100096.88;1711636;83;21008;-69
2022/07/17 04:24:51;;;;;;;8.20;3.27;;;;;;;16.78;100.00;100097.06;1711771;83;21613;-70
2022/07/17 04:27:18;;;;;;;6.72;3.25;;;;;;;16.84;100.00;100103.81;1713440;82;21099;-69
2022/07/17 04:29:45;;;;;;;4.53;3.20;;;;;;;16.87;100.00;100100.98;1768295;81;21034;-70
2022/07/17 04:32:12;;;;;;;6.53;3.50;;;;;;;16.96;100.00;100101.23;1768541;81;21077;-71
2022/07/17 04:34:38;;;;;;;6.30;3.30;;;;;;;17.19;100.00;100101.57;1768257;81;21526;-70
2022/07/17 04:37:06;;;;;;;6.53;2.98;;;;;;;17.36;100.00;100103.12;1768324;81;21903;-69
2022/07/17 04:39:33;;;;;;;7.10;2.87;;;;;;;17.54;100.00;100106.38;1768125;81;21559;-70
2022/07/17 04:41:59;;;;;;;4.58;3.05;;;;;;;17.78;100.00;100107.41;1768526;81;21076;-71
2022/07/17 04:44:26;;;;;;;5.15;3.25;;;;;;;18.03;99.39;100105.76;1768556;81;21084;-72
2022/07/17 04:46:53;;;;;;;5.58;3.58;;;;;;;18.20;99.59;100113.47;1768807;81;21085;-69
2022/07/17 04:49:20;;;;;;;6.78;2.90;;;;;;;18.45;97.75;100115.77;1768622;81;21185;-70
2022/07/17 04:51:47;;;;;;;7.15;3.20;;;;;;;18.72;95.35;100106.75;1768410;80;21042;-70
2022/07/17 04:54:14;;;;;;;3.10;2.45;;;;;;;18.94;92.73;100105.63;1768447;80;21085;-70
2022/07/17 04:56:41;;;;;;;5.17;2.72;;;;;;;19.27;91.56;100109.45;1768355;81;21542;-70
2022/07/17 04:59:07;;;;;;;5.72;2.65;;;;;;;19.66;89.83;100108.30;1768270;80;21061;-69
2022/07/17 05:01:34;;;;;;;4.50;2.80;;;;;;;19.99;83.71;100109.44;1768544;80;21254;-68
2022/07/17 05:04:02;;;;;;;7.10;2.75;;;;;;;20.30;83.52;100103.89;1768143;81;21069;-70
2022/07/17 05:06:28;;;;;;;5.75;2.50;;;;;;;20.61;78.77;100097.48;1768225;81;21029;-70
2022/07/17 05:08:57;;;;;;;6.60;2.55;;;;;;;20.91;77.50;100086.62;1768321;81;21046;-71
2022/07/17 05:11:23;;;;;;;7.47;2.40;;;;;;;21.25;75.86;100094.59;1768615;81;21010;-71
2022/07/17 05:13:51;;;;;;;4.20;2.50;;;;;;;21.62;74.92;100079.52;1768461;80;21606;-71
2022/07/17 05:16:18;;;;;;;5.35;2.40;;;;;;;22.00;69.72;100079.80;1768667;80;21586;-70
2022/07/17 05:18:44;;;;;;;5.40;2.50;;;;;;;22.09;67.54;100073.30;1768537;81;21121;-70
2022/07/17 05:21:11;;;;;;;6.25;2.17;;;;;;;22.26;64.89;100060.63;1768542;81;21573;-70
2022/07/17 05:23:37;;;;;;;4.95;2.20;;;;;;;22.49;63.28;100065.82;1768507;80;21006;-70
2022/07/17 05:26:04;;;;;;;4.53;2.08;;;;;;;22.72;58.12;100064.63;1768383;81;21244;-70
2022/07/17 05:28:30;;;;;;;5.50;2.30;;;;;;;22.96;60.00;100067.44;1763237;80;21034;-70
2022/07/17 05:30:57;;;;;;;6.62;3.00;;;;;;;23.27;57.55;100071.42;1760634;81;21007;-70
2022/07/17 05:33:23;;;;;;;4.72;2.33;;;;;;;23.50;56.32;100074.19;1760568;81;21011;-71
2022/07/17 05:35:50;;;;;;;7.12;2.22;;;;;;;23.65;57.02;100074.13;1760586;80;21081;-71
2022/07/17 05:38:18;;;;;;;4.40;2.20;;;;;;;23.94;55.51;100081.33;1760802;81;21305;-71
2022/07/17 05:40:45;;;;;;;4.60;2.22;;;;;;;24.14;54.86;100078.61;1760379;81;21647;-70
2022/07/17 05:43:11;;;;;;;5.70;2.55;;;;;;;24.29;52.29;100074.44;1760464;81;21026;-70
2022/07/17 05:45:38;;;;;;;6.60;2.22;;;;;;;24.36;50.67;100071.52;1760712;81;21007;-71
2022/07/17 05:48:07;;;;;;;2.80;1.90;;;;;;;24.28;49.85;100078.14;1760636;81;21046;-71
2022/07/17 05:50:34;;;;;;;5.35;2.10;;;;;;;24.35;50.56;100073.03;1760645;80;21036;-71
2022/07/17 05:53:01;;;;;;;3.70;2.40;;;;;;;24.57;49.34;100083.94;1761472;80;21093;-70
2022/07/17 05:55:27;;;;;;;5.30;1.75;;;;;;;24.72;45.33;100078.42;1772073;81;21054;-70
2022/07/17 05:57:54;;;;;;;5.17;2.22;;;;;;;24.98;45.92;100072.32;1771809;81;21006;-71
2022/07/17 06:00:20;;;;;;;5.45;1.72;;;;;;;25.32;45.44;100076.08;1771891;81;21555;-71
2022/07/17 06:02:47;;;;;;;4.45;1.82;;;;;;;25.70;43.19;100074.08;1771564;81;21180;-71
2022/07/17 06:05:13;;;;;;;6.33;2.12;;;;;;;25.85;41.61;100082.45;1771520;81;21079;-72
2022/07/17 06:07:40;;;;;;;5.47;1.90;;;;;;;25.83;41.43;100081.75;1771529;81;21038;-72
2022/07/17 06:10:09;;;;;;;3.87;1.90;;;;;;;25.84;39.50;100084.81;1771519;81;21310;-73
2022/07/17 06:12:37;;;;;;;6.78;2.17;;;;;;;25.61;39.73;100073.67;1705919;84;21133;-73
2022/07/17 06:15:05;;;;;;;6.17;2.15;;;;;;;25.60;39.43;100059.83;1771954;80;21399;-72
2022/07/17 06:17:32;;;;;;;3.12;1.75;;;;;;;25.60;40.11;100062.52;1771709;81;21038;-72
2022/07/17 06:19:59;;;;;;;3.10;1.70;;;;;;;25.56;40.73;100066.55;1771544;81;21046;-74
2022/07/17 06:22:25;;;;;;;3.85;2.02;;;;;;;25.72;39.09;100072.08;1771835;81;21526;-72
2022/07/17 06:24:52;;;;;;;2.52;1.70;;;;;;;25.74;40.19;100074.59;1705208;84;21094;-72
2022/07/17 06:27:18;;;;;;;4.47;2.00;;;;;;;25.67;38.82;100080.27;1771935;81;21144;-72
2022/07/17 06:29:46;;;;;;;5.70;1.70;;;;;;;25.52;39.73;100078.64;1771818;81;21027;-71
2022/07/17 06:32:13;;;;;;;3.90;1.98;;;;;;;25.29;38.91;100080.95;1771697;81;21605;-71
2022/07/17 06:34:39;;;;;;;3.80;1.42;;;;;;;25.35;38.92;100087.56;1771529;81;21116;-71
2022/07/17 06:37:06;;;;;;;3.27;1.55;;;;;;;25.41;39.09;100081.56;1771937;81;21593;-71
2022/07/17 06:39:33;;;;;;;4.62;1.52;;;;;;;25.41;39.30;100078.36;1771778;81;21149;-71
2022/07/17 06:41:59;;;;;;;6.20;1.40;;;;;;;25.31;38.89;100078.45;1771791;81;21006;-72
2022/07/17 06:44:26;;;;;;;5.30;1.50;;;;;;;25.29;40.24;100079.60;1705955;83;21086;-71
2022/07/17 06:46:54;;;;;;;6.95;1.45;;;;;;;25.09;39.35;100085.58;1771944;80;21336;-71
2022/07/17 06:49:20;;;;;;;4.75;1.52;;;;;;;24.74;40.19;100096.62;1770897;80;21606;-71
2022/07/17 06:51:47;;;;;;;5.25;1.90;;;;;;;24.23;41.50;100107.34;1771712;81;22004;-70
2022/07/17 06:54:15;;;;;;;7.70;1.80;;;;;;;23.92;41.76;100110.20;1775851;80;21053;-72
2022/07/17 06:56:43;;;;;;;3.98;1.67;;;;;;;23.77;43.04;100117.03;1778195;80;21044;-72
2022/07/17 06:59:10;;;;;;;3.85;1.55;;;;;;;23.59;42.34;100125.75;1778337;80;21021;-70
2022/07/17 07:01:37;;;;;;;4.87;1.82;;;;;;;23.30;43.56;100118.16;1778550;80;21045;-72
2022/07/17 07:04:04;;;;;;;4.65;1.92;;;;;;;22.93;45.72;100125.45;1778354;80;21231;-72
2022/07/17 07:06:31;;;;;;;5.35;2.10;;;;;;;22.52;47.00;100120.55;1778153;80;21592;-72
2022/07/17 07:08:57;;;;;;;8.68;2.67;;;;;;;22.11;48.49;100129.84;1778256;80;21549;-71
2022/07/17 07:11:27;;;;;;;5.50;2.75;;;;;;;21.78;49.25;100142.91;1778034;80;21026;-71
2022/07/17 07:13:53;;;;;;;6.12;2.75;;;;;;;21.45;50.35;100148.75;1778415;80;21024;-72
2022/07/17 07:16:20;;;;;;;6.17;2.58;;;;;;;21.15;52.20;100163.64;1778219;80;21826;-71
2022/07/17 07:18:47;;;;;;;9.93;2.75;;;;;;;20.92;52.44;100160.62;1778157;80;21057;-71
2022/07/17 07:21:14;;;;;;;6.85;2.40;;;;;;;20.72;53.92;100152.34;1778258;80;21026;-72
2022/07/17 07:23:41;;;;;;;5.12;2.30;;;;;;;20.56;53.64;100155.86;1778110;80;21090;-71
2022/07/17 07:26:07;;;;;;;5.53;1.80;;;;;;;20.47;53.99;100164.08;1778373;80;21029;-72
2022/07/17 07:28:34;;;;;;;3.00;1.50;;;;;;;20.50;53.98;100170.55;1778205;80;21594;-70
2022/07/17 07:31:01;;;;;;;3.55;1.55;;;;;;;20.60;51.96;100167.19;1778328;80;21029;-70
2022/07/17 07:33:28;;;;;;;3.50;1.50;;;;;;;20.63;52.68;100171.80;1778055;80;21020;-72
2022/07/17 07:35:54;;;;;;;2.55;1.52;;;;;;;20.55;52.33;100178.22;1778265;80;21025;-72
2022/07/17 07:38:21;;;;;;;3.67;1.45;;;;;;;20.52;51.83;100186.45;1778362;80;21020;-72
2022/07/17 07:40:48;;;;;;;2.33;1.30;;;;;;;20.54;52.77;100191.20;1778240;80;21228;-71
2022/07/17 07:43:15;;;;;;;3.72;1.10;;;;;;;20.54;51.95;100192.55;1778648;80;21005;-72
2022/07/17 07:45:41;;;;;;;3.60;1.07;;;;;;;20.57;51.96;100183.00;1778136;80;21521;-71
2022/07/17 07:48:08;;;;;;;2.72;1.30;;;;;;;20.43;53.47;100183.16;1778371;80;21057;-70
2022/07/17 07:50:34;;;;;;;4.60;1.60;;;;;;;20.35;53.81;100186.92;1778227;80;21052;-70
2022/07/17 07:53:02;;;;;;;3.33;1.30;;;;;;;20.22;55.48;100187.88;1775711;80;21113;-71
2022/07/17 07:55:29;;;;;;;2.72;1.55;;;;;;;20.04;55.06;100202.64;1747438;82;21030;-71
2022/07/17 07:58:06;;;;;;;2.42;1.57;;;;;;;19.88;56.04;100210.47;1747571;82;21038;-71
2022/07/17 08:00:34;;;;;;;4.60;1.70;;;;;;;19.72;56.98;100212.58;1747611;82;21006;-72
2022/07/17 08:03:00;;;;;;;4.12;1.67;;;;;;;19.50;57.50;100208.76;1747461;81;21109;-69
2022/07/17 08:05:26;;;;;;;3.30;1.50;;;;;;;19.33;58.66;100206.48;1747570;82;21101;-70
2022/07/17 08:07:53;;;;;;;4.58;1.80;;;;;;;19.01;60.44;100215.45;1747342;82;21628;-70
2022/07/17 08:10:20;;;;;;;2.22;1.30;;;;;;;18.90;61.42;100222.03;1747250;82;22010;-69
2022/07/17 08:12:47;;;;;;;4.15;1.87;;;;;;;18.88;62.23;100207.45;1747542;82;21017;-71
2022/07/17 08:15:16;;;;;;;2.35;1.60;;;;;;;18.91;62.07;100215.26;1769787;80;21561;-72
2022/07/17 08:17:43;;;;;;;2.27;1.30;;;;;;;19.05;62.56;100219.63;1778150;80;21075;-70
2022/07/17 08:20:11;;;;;;;2.58;1.35;;;;;;;19.24;62.45;100223.16;1778152;80;21025;-71
2022/07/17 08:22:37;;;;;;;3.47;1.45;;;;;;;19.33;61.22;100229.17;1778118;80;21036;-71
2022/07/17 08:25:05;;;;;;;2.72;1.35;;;;;;;19.32;62.46;100219.44;1778312;80;21037;-71
2022/07/17 08:27:39;;;;;;;3.80;1.50;;;;;;;19.49;61.91;100224.42;1778054;80;21072;-71
2022/07/17 08:30:08;;;;;;;5.65;1.72;;;;;;;19.69;60.97;100219.46;1778298;80;21509;-71
2022/07/17 08:32:35;;;;;;;2.55;1.75;;;;;;;19.91;60.96;100214.23;1778470;80;21064;-71
2022/07/17 08:35:02;;;;;;;3.15;1.22;;;;;;;20.17;59.56;100216.77;1778283;80;21029;-72
2022/07/17 08:37:29;;;;;;;3.08;1.52;;;;;;;20.48;59.07;100211.77;1778106;80;21033;-71
2022/07/17 08:39:56;;;;;;;2.30;1.30;;;;;;;20.74;58.28;100210.61;1778083;80;21033;-72
2022/07/17 08:42:23;;;;;;;2.95;1.30;;;;;;;20.81;56.94;100206.97;1778252;80;21094;-71
2022/07/17 08:44:50;;;;;;;4.83;2.27;;;;;;;20.76;56.64;100208.31;1778201;80;21049;-72
2022/07/17 08:47:16;;;;;;;1.72;1.52;;;;;;;20.79;57.42;100210.73;1778524;80;20993;-70
2022/07/17 08:49:45;;;;;;;4.65;1.42;;;;;;;21.05;57.07;100206.87;1778279;80;21082;-71
2022/07/17 08:52:13;;;;;;;4.00;1.85;;;;;;;21.28;56.51;100203.69;1778239;80;21067;-70
2022/07/17 08:54:39;;;;;;;5.97;4.15;;;;;;;21.62;53.91;100201.45;1773465;80;21816;-71
2022/07/17 08:57:06;;;;;;;17.82;12.90;;;;;;;22.06;53.70;100188.84;1771357;81;21074;-72
2022/07/17 08:59:34;;;;;;;9.43;4.53;;;;;;;22.53;52.21;100188.86;1705092;83;21068;-71
2022/07/17 09:02:00;;;;;;;5.30;1.55;;;;;;;22.88;51.30;100192.16;1771413;81;21598;-70
2022/07/17 09:04:28;;;;;;;3.95;1.47;;;;;;;23.18;50.99;100180.06;1771265;81;21089;-71
2022/07/17 09:07:02;;;;;;;3.45;1.80;;;;;;;23.37;49.75;100190.50;1771098;81;21314;-72
2022/07/17 09:09:29;;;;;;;2.70;1.37;;;;;;;23.48;49.90;100174.27;1771583;81;21577;-71
2022/07/17 09:12:03;;;;;;;5.10;1.75;;;;;;;23.81;48.99;100182.95;1771372;80;21137;-71
2022/07/17 09:14:39;;;;;;;4.05;3.02;;;;;;;24.25;46.46;100183.39;1705162;84;22158;-72
2022/07/17 09:17:07;;;;;;;5.85;3.83;;;;;;;24.62;44.88;100181.29;1771209;80;20991;-71
2022/07/17 09:19:45;;;;;;;9.85;7.05;;;;;;;24.61;45.53;100182.27;1771579;81;21502;-71
2022/07/17 09:22:20;;;;;;;4.03;2.40;;;;;;;24.60;44.85;100183.27;1705885;84;21078;-71
2022/07/17 09:24:58;;;;;;;3.20;2.67;;;;;;;24.63;45.45;100178.93;1772432;80;21049;-71
2022/07/17 09:27:31;;;;;;;3.50;1.67;;;;;;;24.69;43.84;100181.05;1772091;81;21529;-72
2022/07/17 09:30:11;;;;;;;6.30;2.37;;;;;;;24.78;43.56;100188.25;1772298;81;21494;-73
2022/07/17 09:32:41;;;;;;;2.27;1.35;;;;;;;24.80;42.51;100179.53;1705325;84;22037;-70
2022/07/17 09:35:09;;;;;;;3.60;1.62;;;;;;;24.92;42.74;100177.49;1771391;80;21140;-72
2022/07/17 09:37:37;;;;;;;4.15;1.70;;;;;;;25.25;42.31;100177.41;1771382;81;21037;-72
2022/07/17 09:40:11;;;;;;;2.35;1.10;;;;;;;25.14;42.08;100169.50;1705297;83;21074;-71
2022/07/17 09:42:37;;;;;;;4.42;2.37;;;;;;;25.13;42.76;100174.55;1771900;80;21031;-73
2022/07/17 09:45:10;;;;;;;5.30;2.92;;;;;;;25.14;42.04;100169.50;1771521;81;21904;-72
2022/07/17 09:47:38;;;;;;;6.33;2.20;;;;;;;25.40;41.61;100174.20;1771752;81;21116;-73
2022/07/17 09:50:08;;;;;;;3.15;1.22;;;;;;;25.61;39.85;100180.19;1771668;81;20998;-73
2022/07/17 09:52:37;;;;;;;5.50;1.37;;;;;;;25.64;39.35;100177.17;1772196;81;20985;-71
2022/07/17 09:55:04;;;;;;;6.35;4.55;;;;;;;25.67;37.69;100176.85;1716401;81;21528;-72
2022/07/17 09:57:34;;;;;;;6.80;3.83;;;;;;;25.59;36.46;100181.34;1681546;84;21468;-71
2022/07/17 10:00:11;;;;;;;4.50;2.15;;;;;;;25.53;34.29;100175.53;1681448;85;21658;-73
2022/07/17 10:02:43;;;;;;;8.85;5.50;;;;;;;25.51;34.26;100178.03;1703674;83;22039;-71
2022/07/17 10:05:15;;;;;;;4.95;3.08;;;;;;;25.43;36.39;100187.41;1703576;84;21107;-72
2022/07/17 10:07:45;;;;;;;10.98;6.70;;;;;;;25.38;35.64;100191.06;1703454;84;21576;-73
2022/07/17 10:10:13;;;;;;;16.57;10.18;;;;;;;25.43;35.51;100177.97;1703388;84;21277;-73
2022/07/17 10:12:43;;;;;;;11.05;6.50;;;;;;;25.43;35.68;100185.55;1703931;84;21064;-72
2022/07/17 10:15:11;;;;;;;3.95;2.35;;;;;;;25.48;34.16;100180.54;1712080;83;21121;-71
2022/07/17 10:17:38;;;;;;;6.55;4.90;;;;;;;25.55;34.70;100180.78;1717834;83;21085;-71
2022/07/17 10:20:07;;;;;;;10.63;7.03;;;;;;;25.85;34.51;100175.52;1717515;83;21122;-71
2022/07/17 10:22:46;;;;;;;16.00;10.25;;;;;;;26.13;31.78;100181.69;1717840;83;21723;-71
2022/07/17 10:25:17;;;;;;;5.20;3.67;;;;;;;26.23;32.35;100164.58;1717726;83;21019;-71
2022/07/17 10:27:50;;;;;;;15.50;8.20;;;;;;;26.44;33.28;100165.06;1717803;83;21113;-73
2022/07/17 10:30:28;;;;;;;3.55;1.42;;;;;;;26.76;32.30;100168.49;1704111;83;21085;-72
2022/07/17 10:32:59;;;;;;;1.55;1.02;;;;;;;26.87;32.90;100161.97;1717816;83;21104;-72
2022/07/17 10:35:27;;;;;;;5.67;1.40;;;;;;;26.85;32.84;100151.83;1716998;82;21531;-71
2022/07/17 10:38:13;;;;;;;2.33;0.98;;;;;;;26.76;32.04;100167.66;1717741;83;21098;-73
2022/07/17 10:40:41;;;;;;;2.15;1.35;;;;;;;26.46;32.53;100157.66;1717659;83;21051;-71
2022/07/17 10:43:08;;;;;;;2.25;0.95;;;;;;;26.33;33.21;100157.22;1717748;83;21003;-73
2022/07/17 10:45:45;;;;;;;2.42;1.60;;;;;;;26.31;33.00;100153.32;1717957;83;21018;-74
2022/07/17 10:48:19;;;;;;;1.80;0.93;;;;;;;26.40;34.22;100159.63;1717904;83;21601;-72
2022/07/17 10:50:55;;;;;;;1.30;0.80;;;;;;;26.68;32.86;100155.44;1717683;83;21049;-73
2022/07/17 10:53:31;;;;;;;1.05;0.80;;;;;;;26.76;33.04;100154.14;1711473;83;21574;-73
2022/07/17 10:56:05;;;;;;;0.78;0.78;;;;;;;26.77;32.03;100158.53;1688916;84;21074;-73
2022/07/17 10:58:42;;;;;;;3.67;1.20;;;;;;;26.31;31.96;100156.53;1688889;84;21053;-73
2022/07/17 11:01:22;;;;;;;2.58;0.90;;;;;;;25.88;33.34;100144.71;1688713;84;22297;-72
2022/07/17 11:03:55;;;;;;;1.55;0.85;;;;;;;25.68;33.08;100140.81;1688819;84;21090;-72
2022/07/17 11:06:31;;;;;;;2.40;1.00;;;;;;;25.69;32.61;100141.66;1688987;84;21045;-72
2022/07/17 11:09:08;;;;;;;1.15;0.90;;;;;;;25.64;33.84;100139.92;1688757;85;21716;-72
2022/07/17 11:11:46;;;;;;;4.72;1.00;;;;;;;25.61;34.28;100134.34;1688941;84;21138;-72
2022/07/17 11:14:21;;;;;;;1.17;0.70;;;;;;;25.61;34.47;100141.08;1688880;85;21183;-73
2022/07/17 11:16:52;;;;;;;2.35;0.70;;;;;;;25.44;33.74;100141.91;1688872;85;21597;-72
2022/07/17 11:19:30;;;;;;;1.22;0.75;;;;;;;25.13;32.64;100150.30;1689143;84;21578;-72
2022/07/17 11:22:03;;;;;;;3.00;0.65;;;;;;;25.03;33.56;100146.80;1689020;84;21030;-72
2022/07/17 11:24:43;;;;;;;2.05;1.07;;;;;;;24.89;34.28;100159.78;1688923;84;21042;-73
2022/07/17 11:27:13;;;;;;;3.65;1.20;;;;;;;24.60;34.52;100158.54;1688994;85;21157;-72
2022/07/17 11:29:40;;;;;;;1.95;1.12;;;;;;;24.18;35.26;100148.60;1688669;84;21054;-73